createdAt,value
2023-05-24T00:01:26.964Z,11.70
2023-05-24T00:03:59.338Z,9.90
2023-05-24T00:06:30.857Z,10.50
2023-05-24T00:09:02.477Z,11.50
2023-05-24T00:11:33.568Z,11.30
2023-05-24T00:14:04.884Z,10.30
2023-05-24T00:16:36.962Z,11.20
2023-05-24T00:19:11.467Z,11.50
2023-05-24T00:21:42.503Z,12.50
2023-05-24T00:24:13.791Z,10.90
2023-05-24T00:26:44.809Z,10.40
2023-05-24T00:29:15.977Z,10.20
2023-05-24T00:31:47.034Z,10.40
2023-05-24T00:34:18.367Z,13.90
2023-05-24T00:36:49.525Z,10.90
2023-05-24T00:39:20.948Z,10.90
2023-05-24T00:41:52.007Z,10.30
2023-05-24T00:44:23.273Z,11.40
2023-05-24T00:46:55.131Z,11.80
2023-05-24T00:49:26.729Z,10.80
2023-05-24T00:51:58.006Z,11.40
2023-05-24T00:54:29.694Z,9.90
2023-05-24T00:57:01.934Z,11.00
2023-05-24T00:59:34.088Z,9.50
2023-05-24T01:02:05.339Z,10.40
2023-05-24T01:04:38.178Z,11.50
2023-05-24T01:07:23.608Z,11.50
2023-05-24T01:10:05.882Z,10.10
2023-05-24T01:12:48.326Z,10.50
2023-05-24T01:15:25.834Z,10.40
2023-05-24T01:18:17.543Z,9.90
2023-05-24T01:20:50.889Z,11.90
2023-05-24T01:23:42.045Z,10.60
2023-05-24T01:26:33.579Z,11.40
2023-05-24T01:29:06.138Z,10.80
2023-05-24T01:31:39.045Z,11.00
2023-05-24T01:34:10.581Z,10.90
2023-05-24T01:36:41.799Z,10.60
2023-05-24T01:39:13.914Z,11.20
2023-05-24T01:41:53.369Z,10.80
2023-05-24T01:44:30.514Z,11.10
2023-05-24T01:47:10.395Z,11.40
2023-05-24T01:49:49.471Z,10.20
2023-05-24T01:52:24.360Z,11.60
2023-05-24T01:54:59.551Z,10.30
2023-05-24T01:57:31.896Z,10.70
2023-05-24T02:00:04.724Z,12.20
2023-05-24T02:02:43.651Z,9.90
2023-05-24T02:05:15.128Z,11.70
2023-05-24T02:07:46.249Z,10.50
2023-05-24T02:10:17.377Z,11.50
2023-05-24T02:12:49.297Z,9.90
2023-05-24T02:15:20.882Z,9.70
2023-05-24T02:17:54.834Z,11.90
2023-05-24T02:20:26.562Z,10.90
2023-05-24T02:22:57.838Z,10.90
2023-05-24T02:25:31.803Z,9.70
2023-05-24T02:28:03.011Z,9.60
2023-05-24T02:30:34.914Z,11.70
2023-05-24T02:33:06.334Z,10.20
2023-05-24T02:35:37.944Z,10.20
2023-05-24T02:38:09.850Z,9.60
2023-05-24T02:40:41.218Z,10.10
2023-05-24T02:43:12.359Z,10.90
2023-05-24T02:45:45.993Z,9.70
2023-05-24T02:48:17.316Z,10.20
2023-05-24T02:50:48.611Z,10.00
2023-05-24T02:53:19.564Z,11.30
2023-05-24T02:55:51.476Z,10.70
2023-05-24T02:58:23.117Z,11.20
2023-05-24T03:00:54.663Z,11.80
2023-05-24T03:03:26.125Z,11.80
2023-05-24T03:05:57.362Z,10.10
2023-05-24T03:08:28.224Z,11.00
2023-05-24T03:10:59.348Z,11.20
2023-05-24T03:13:30.225Z,10.60
2023-05-24T03:16:01.478Z,11.20
2023-05-24T03:18:34.308Z,10.60
2023-05-24T03:21:06.114Z,10.00
2023-05-24T03:23:38.338Z,11.20
2023-05-24T03:26:09.703Z,10.60
2023-05-24T03:28:42.071Z,10.30
2023-05-24T03:31:13.901Z,10.70
2023-05-24T03:33:45.272Z,10.90
2023-05-24T03:36:16.770Z,10.70
2023-05-24T03:38:47.902Z,10.30
2023-05-24T03:41:19.456Z,9.70
2023-05-24T03:43:50.553Z,10.40
2023-05-24T03:46:22.474Z,10.50
2023-05-24T03:48:53.551Z,10.60
2023-05-24T03:51:29.497Z,11.40
2023-05-24T03:54:00.985Z,10.20
2023-05-24T03:56:32.059Z,10.20
2023-05-24T03:59:04.510Z,9.30
2023-05-24T04:01:37.512Z,11.30
2023-05-24T04:04:08.747Z,10.40
2023-05-24T04:06:41.925Z,9.50
2023-05-24T04:09:13.712Z,11.50
2023-05-24T04:11:44.903Z,10.70
2023-05-24T04:14:16.033Z,12.10
2023-05-24T04:16:47.603Z,12.00
2023-05-24T04:19:18.904Z,11.80
2023-05-24T04:21:50.824Z,13.10
2023-05-24T04:24:22.063Z,12.50
2023-05-24T04:26:53.526Z,11.10
2023-05-24T04:29:26.818Z,10.70
2023-05-24T04:31:57.759Z,11.90
2023-05-24T04:34:30.229Z,11.80
2023-05-24T04:37:02.450Z,14.00
2023-05-24T04:39:33.978Z,15.70
2023-05-24T04:42:05.132Z,15.30
2023-05-24T04:44:36.434Z,17.10
2023-05-24T04:47:08.933Z,17.40
2023-05-24T04:49:40.064Z,16.90
2023-05-24T04:52:11.610Z,16.30
2023-05-24T04:54:43.027Z,18.70
2023-05-24T04:57:14.292Z,17.00
2023-05-24T04:59:45.597Z,15.90
2023-05-24T05:02:16.828Z,15.50
2023-05-24T05:04:47.955Z,16.30
2023-05-24T05:07:19.055Z,14.50
2023-05-24T05:09:50.610Z,13.70
2023-05-24T05:12:21.609Z,14.40
2023-05-24T05:14:52.819Z,14.20
2023-05-24T05:17:24.037Z,13.90
2023-05-24T05:19:55.441Z,13.30
2023-05-24T05:22:26.465Z,14.00
2023-05-24T05:24:57.667Z,15.40
2023-05-24T05:27:28.527Z,14.50
2023-05-24T05:30:00.088Z,16.00
2023-05-24T05:32:31.306Z,17.70
2023-05-24T05:35:02.544Z,18.70
2023-05-24T05:37:33.702Z,16.60
2023-05-24T05:40:05.209Z,17.30
2023-05-24T05:42:36.189Z,17.70
2023-05-24T05:45:09.385Z,16.90
2023-05-24T05:47:40.937Z,16.40
2023-05-24T05:50:13.397Z,17.60
2023-05-24T05:52:44.444Z,16.70
2023-05-24T05:55:15.525Z,17.40
2023-05-24T05:57:46.488Z,15.20
2023-05-24T06:00:19.656Z,16.80
2023-05-24T06:02:51.019Z,14.70
2023-05-24T06:05:22.845Z,14.30
2023-05-24T06:07:53.728Z,12.70
2023-05-24T06:10:25.315Z,14.20
2023-05-24T06:12:56.219Z,13.20
2023-05-24T06:15:27.460Z,13.60
2023-05-24T06:17:58.311Z,12.90
2023-05-24T06:20:29.855Z,13.90
2023-05-24T06:23:01.637Z,11.90
2023-05-24T06:25:33.300Z,12.90
2023-05-24T06:28:04.666Z,13.40
2023-05-24T06:30:36.091Z,20.30
2023-05-24T06:33:07.907Z,13.20
2023-05-24T06:35:38.913Z,12.80
2023-05-24T06:38:10.242Z,12.60
2023-05-24T06:40:41.844Z,13.70
2023-05-24T06:43:13.343Z,12.20
2023-05-24T06:45:45.205Z,14.40
2023-05-24T06:48:16.996Z,13.90
2023-05-24T06:50:48.454Z,13.10
2023-05-24T06:53:19.614Z,15.00
2023-05-24T06:55:50.964Z,13.70
2023-05-24T06:58:22.975Z,14.20
2023-05-24T07:00:54.353Z,14.20
2023-05-24T07:03:25.853Z,16.80
2023-05-24T07:05:57.174Z,16.00
2023-05-24T07:08:28.911Z,16.30
2023-05-24T07:11:00.256Z,19.20
2023-05-24T07:13:31.167Z,16.20
2023-05-24T07:16:02.316Z,15.90
2023-05-24T07:18:33.496Z,15.30
2023-05-24T07:21:04.855Z,13.30
2023-05-24T07:23:37.096Z,16.30
2023-05-24T07:26:09.255Z,17.10
2023-05-24T07:28:40.784Z,16.20
2023-05-24T07:31:13.691Z,17.00
2023-05-24T07:33:45.013Z,15.80
2023-05-24T07:36:16.441Z,17.50
2023-05-24T07:38:47.241Z,16.30
2023-05-24T07:41:18.391Z,17.50
2023-05-24T07:43:49.685Z,17.20
2023-05-24T07:46:21.636Z,17.70
2023-05-24T07:48:53.259Z,17.80
2023-05-24T07:51:24.610Z,18.40
2023-05-24T07:53:56.045Z,19.10
2023-05-24T07:56:27.161Z,18.60
2023-05-24T07:59:03.798Z,22.90
2023-05-24T08:01:36.842Z,17.70
2023-05-24T08:04:08.968Z,19.90
2023-05-24T08:06:40.409Z,21.00
2023-05-24T08:09:12.536Z,18.60
2023-05-24T08:11:43.840Z,22.40
2023-05-24T08:14:14.960Z,19.40
2023-05-24T08:16:46.431Z,18.80
2023-05-24T08:19:17.668Z,18.30
2023-05-24T08:21:48.712Z,37.40
2023-05-24T08:24:21.105Z,23.60
2023-05-24T08:26:54.264Z,24.40
2023-05-24T08:29:25.571Z,22.90
2023-05-24T08:31:56.705Z,22.00
2023-05-24T08:34:28.579Z,20.00
2023-05-24T08:36:59.498Z,23.10
2023-05-24T08:39:31.181Z,23.50
2023-05-24T08:44:48.755Z,19.20
2023-05-24T08:47:21.221Z,18.20
2023-05-24T08:49:55.049Z,17.40
2023-05-24T08:52:27.000Z,18.10
2023-05-24T08:54:59.858Z,19.80
2023-05-24T08:57:32.869Z,20.30
2023-05-24T09:00:04.684Z,21.70
2023-05-24T09:02:36.504Z,20.80
2023-05-24T09:05:10.925Z,21.40
2023-05-24T09:07:43.273Z,23.00
2023-05-24T09:10:14.666Z,27.80
2023-05-24T09:12:49.949Z,32.90
2023-05-24T09:15:21.236Z,29.20
2023-05-24T09:17:52.502Z,27.90
2023-05-24T09:20:24.618Z,27.50
2023-05-24T09:22:57.563Z,21.50
2023-05-24T09:25:30.722Z,38.60
2023-05-24T09:28:06.749Z,22.80
2023-05-24T09:30:37.720Z,23.10
2023-05-24T09:33:11.396Z,19.10
2023-05-24T09:35:44.813Z,25.00
2023-05-24T09:38:20.800Z,21.30
2023-05-24T09:41:01.214Z,19.80
2023-05-24T09:43:32.967Z,24.90
2023-05-24T09:46:06.063Z,19.50
2023-05-24T09:48:37.415Z,25.40
2023-05-24T09:51:10.423Z,22.40
2023-05-24T09:53:47.058Z,20.70
2023-05-24T09:56:18.107Z,22.00
2023-05-24T09:58:49.276Z,20.10
2023-05-24T10:01:24.345Z,20.30
2023-05-24T10:04:00.675Z,19.90
2023-05-24T10:06:33.193Z,19.50
2023-05-24T10:09:07.061Z,20.20
2023-05-24T10:11:38.283Z,19.20
2023-05-24T10:14:10.837Z,18.10
2023-05-24T10:16:41.743Z,16.70
2023-05-24T10:19:13.234Z,17.90
2023-05-24T10:21:45.199Z,14.10
2023-05-24T10:24:19.359Z,14.60
2023-05-24T10:26:51.664Z,14.00
2023-05-24T10:29:36.321Z,16.10
2023-05-24T10:32:09.304Z,16.70
2023-05-24T10:34:42.635Z,14.70
2023-05-24T10:37:15.046Z,17.30
2023-05-24T10:39:46.759Z,19.00
2023-05-24T10:42:18.163Z,13.40
2023-05-24T10:44:49.058Z,15.50
2023-05-24T10:47:23.149Z,15.50
2023-05-24T10:49:57.939Z,15.50
2023-05-24T10:52:38.614Z,14.70
2023-05-24T10:55:12.050Z,15.10
2023-05-24T10:57:43.801Z,15.60
2023-05-24T11:00:36.006Z,16.50
2023-05-24T11:03:11.270Z,13.60
2023-05-24T11:05:55.503Z,14.90
2023-05-24T11:08:35.447Z,18.40
2023-05-24T11:13:47.928Z,21.60
2023-05-24T11:16:37.509Z,16.80
2023-05-24T11:19:18.852Z,17.90
2023-05-24T11:21:51.612Z,16.50
2023-05-24T11:24:23.929Z,15.70
2023-05-24T11:26:55.331Z,18.10
2023-05-24T11:29:26.289Z,15.50
2023-05-24T11:32:04.202Z,16.80
2023-05-24T11:34:35.756Z,18.00
2023-05-24T11:37:07.853Z,14.20
2023-05-24T11:39:40.113Z,14.50
2023-05-24T11:42:12.018Z,17.50
2023-05-24T11:44:43.255Z,19.30
2023-05-24T11:47:16.205Z,12.90
2023-05-24T11:49:53.096Z,16.60
2023-05-24T11:52:24.238Z,15.50
2023-05-24T11:54:55.622Z,16.70
2023-05-24T11:57:31.596Z,24.90
2023-05-24T12:00:03.063Z,23.20
2023-05-24T12:02:35.988Z,24.80
2023-05-24T12:05:14.647Z,14.00
2023-05-24T12:07:49.082Z,20.40
2023-05-24T12:10:22.893Z,16.10
2023-05-24T12:12:54.203Z,14.90
2023-05-24T12:15:25.806Z,15.90
2023-05-24T12:17:56.936Z,13.30
2023-05-24T12:20:30.761Z,14.70
2023-05-24T12:23:04.012Z,17.30
2023-05-24T12:25:38.552Z,17.20
2023-05-24T12:28:09.535Z,57.40
2023-05-24T12:30:43.554Z,40.50
2023-05-24T12:33:15.877Z,19.20
2023-05-24T12:35:47.694Z,24.40
2023-05-24T12:38:25.941Z,14.60
2023-05-24T12:43:32.658Z,13.30
2023-05-24T12:46:03.862Z,16.50
2023-05-24T12:48:35.441Z,17.80
2023-05-24T12:51:08.230Z,19.30
2023-05-24T12:53:39.370Z,14.30
2023-05-24T12:56:10.887Z,14.50
2023-05-24T12:58:42.646Z,16.30
2023-05-24T13:01:13.994Z,43.40
2023-05-24T13:03:45.263Z,18.30
2023-05-24T13:06:16.616Z,16.50
2023-05-24T13:08:47.738Z,24.60
2023-05-24T13:11:18.781Z,15.70
2023-05-24T13:13:49.893Z,27.50
2023-05-24T13:16:21.789Z,16.90
2023-05-24T13:18:53.256Z,16.20
2023-05-24T13:21:24.596Z,13.60
2023-05-24T13:23:55.467Z,20.50
2023-05-24T13:26:27.289Z,13.90
2023-05-24T13:29:27.822Z,17.60
2023-05-24T13:31:49.291Z,21.30
2023-05-24T13:34:20.829Z,14.10
2023-05-24T13:36:52.732Z,17.60
2023-05-24T13:39:25.115Z,18.40
2023-05-24T13:41:56.454Z,22.80
2023-05-24T13:44:27.833Z,17.10
2023-05-24T13:46:59.963Z,28.60
2023-05-24T13:49:31.764Z,23.50
2023-05-24T13:52:04.003Z,29.40
2023-05-24T13:54:34.960Z,29.60
2023-05-24T13:57:06.758Z,23.30
2023-05-24T13:59:37.744Z,35.50
2023-05-24T14:02:09.441Z,24.20
2023-05-24T14:04:40.496Z,13.10
2023-05-24T14:07:15.843Z,18.00
2023-05-24T14:09:47.503Z,16.40
2023-05-24T14:12:18.984Z,14.20
2023-05-24T14:17:24.464Z,14.80
2023-05-24T14:19:55.617Z,16.70
2023-05-24T14:22:27.524Z,12.20
2023-05-24T14:24:59.713Z,13.40
2023-05-24T14:27:30.828Z,12.30
2023-05-24T14:30:02.089Z,12.50
2023-05-24T14:32:33.505Z,11.60
2023-05-24T14:35:05.198Z,16.70
2023-05-24T14:37:36.155Z,16.60
2023-05-24T14:40:09.368Z,17.70
2023-05-24T14:42:40.624Z,25.20
2023-05-24T14:45:14.097Z,14.90
2023-05-24T14:47:45.089Z,14.80
2023-05-24T14:50:16.131Z,19.40
2023-05-24T14:52:47.393Z,19.80
2023-05-24T14:55:19.276Z,20.90
2023-05-24T14:57:50.474Z,13.60
2023-05-24T15:00:24.544Z,15.60
2023-05-24T15:02:56.706Z,13.60
2023-05-24T15:05:28.075Z,24.20
2023-05-24T15:07:59.289Z,23.50
2023-05-24T15:10:30.733Z,14.60
2023-05-24T15:13:02.125Z,14.20
2023-05-24T15:15:33.243Z,12.60
2023-05-24T15:18:04.341Z,13.50
2023-05-24T15:20:36.934Z,13.30
2023-05-24T15:23:11.234Z,12.90
2023-05-24T15:25:43.076Z,12.10
2023-05-24T15:28:17.116Z,13.90
2023-05-24T15:30:48.989Z,13.70
2023-05-24T15:33:20.351Z,16.50
2023-05-24T15:35:51.491Z,15.10
2023-05-24T15:38:22.942Z,19.60
2023-05-24T15:40:54.405Z,20.40
2023-05-24T15:43:25.629Z,19.60
2023-05-24T15:45:57.117Z,25.30
2023-05-24T15:48:28.134Z,43.10
2023-05-24T15:51:53.792Z,21.30
2023-05-24T15:53:50.897Z,56.20
2023-05-24T15:56:22.267Z,27.20
2023-05-24T15:58:53.479Z,34.10
2023-05-24T16:01:24.702Z,13.60
2023-05-24T16:03:55.766Z,11.30
2023-05-24T16:06:27.013Z,12.00
2023-05-24T16:08:58.402Z,12.60
2023-05-24T16:11:29.518Z,12.80
2023-05-24T16:14:00.489Z,12.30
2023-05-24T16:16:31.980Z,12.50
2023-05-24T16:19:03.337Z,14.50
2023-05-24T16:21:34.595Z,13.50
2023-05-24T16:24:06.234Z,12.40
2023-05-24T16:26:37.208Z,14.70
2023-05-24T16:29:10.705Z,12.30
2023-05-24T16:31:41.893Z,11.40
2023-05-24T16:34:13.971Z,13.30
2023-05-24T16:36:47.213Z,14.80
2023-05-24T16:39:18.529Z,13.10
2023-05-24T16:41:49.577Z,11.20
2023-05-24T16:44:21.022Z,13.90
2023-05-24T16:46:52.085Z,12.60
2023-05-24T16:49:23.825Z,11.50
2023-05-24T16:51:55.094Z,16.80
2023-05-24T16:54:26.148Z,14.30
2023-05-24T16:56:57.545Z,11.30
2023-05-24T16:59:28.832Z,12.70
2023-05-24T17:02:00.131Z,12.40
2023-05-24T17:04:31.295Z,11.70
2023-05-24T17:07:02.362Z,12.40
2023-05-24T17:09:33.591Z,12.30
2023-05-24T17:12:04.998Z,11.20
2023-05-24T17:14:35.889Z,13.30
2023-05-24T17:17:08.957Z,13.30
2023-05-24T17:19:41.767Z,11.10
2023-05-24T17:22:14.028Z,11.10
2023-05-24T17:24:44.989Z,11.80
2023-05-24T17:27:19.900Z,10.90
2023-05-24T17:29:53.188Z,11.80
2023-05-24T17:32:24.341Z,10.60
2023-05-24T17:34:55.882Z,11.90
2023-05-24T17:37:27.259Z,9.90
2023-05-24T17:39:58.559Z,13.50
2023-05-24T17:42:29.706Z,9.60
2023-05-24T17:45:01.020Z,10.80
2023-05-24T17:47:31.902Z,10.70
2023-05-24T17:50:03.327Z,11.10
2023-05-24T17:52:34.208Z,11.10
2023-05-24T17:55:06.331Z,10.20
2023-05-24T17:57:37.582Z,9.60
2023-05-24T18:00:10.390Z,12.90
2023-05-24T18:02:50.328Z,10.00
2023-05-24T18:05:21.421Z,13.00
2023-05-24T18:07:52.526Z,10.40
2023-05-24T18:10:23.557Z,12.10
2023-05-24T18:12:54.884Z,11.30
2023-05-24T18:15:25.818Z,9.30
2023-05-24T18:17:57.270Z,12.20
2023-05-24T18:20:28.222Z,12.50
2023-05-24T18:22:59.465Z,10.30
2023-05-24T18:25:30.809Z,10.30
2023-05-24T18:28:01.697Z,9.10
2023-05-24T18:30:32.528Z,12.30
2023-05-24T18:33:07.782Z,12.50
2023-05-24T18:35:39.925Z,11.00
2023-05-24T18:38:10.719Z,11.60
2023-05-24T18:40:41.656Z,10.60
2023-05-24T18:43:12.861Z,9.00
2023-05-24T18:45:43.951Z,10.60
2023-05-24T18:48:15.934Z,9.20
2023-05-24T18:50:48.173Z,9.90
2023-05-24T18:53:19.059Z,9.60
2023-05-24T18:55:50.284Z,9.20
2023-05-24T18:58:21.306Z,8.70
2023-05-24T19:00:52.177Z,8.80
2023-05-24T19:03:23.546Z,9.40
2023-05-24T19:05:54.381Z,9.80
2023-05-24T19:08:25.570Z,9.00
2023-05-24T19:10:56.568Z,8.80
2023-05-24T19:13:27.867Z,10.90
2023-05-24T19:16:00.746Z,8.80
2023-05-24T19:18:32.095Z,9.10
2023-05-24T19:21:03.121Z,11.40
2023-05-24T19:23:34.264Z,9.90
2023-05-24T19:26:05.215Z,8.90
2023-05-24T19:28:40.273Z,10.50
2023-05-24T19:31:11.409Z,11.60
2023-05-24T19:33:55.992Z,10.20
2023-05-24T19:36:33.124Z,10.00
2023-05-24T19:39:04.812Z,9.60
2023-05-24T19:41:35.889Z,10.70
2023-05-24T19:44:07.062Z,10.00
2023-05-24T19:46:38.132Z,13.20
2023-05-24T19:49:09.670Z,10.20
2023-05-24T19:51:40.542Z,10.90
2023-05-24T19:54:13.085Z,11.10
2023-05-24T19:56:44.347Z,17.90
2023-05-24T19:59:16.176Z,11.80
2023-05-24T20:01:47.126Z,10.60
2023-05-24T20:04:18.856Z,11.60
2023-05-24T20:06:49.907Z,9.60
2023-05-24T20:09:21.300Z,10.50
2023-05-24T20:11:52.640Z,10.10
2023-05-24T20:14:23.935Z,10.50
2023-05-24T20:16:55.035Z,8.40
2023-05-24T20:19:29.067Z,9.30
2023-05-24T20:22:00.290Z,9.80
2023-05-24T20:24:31.161Z,10.00
2023-05-24T20:27:02.570Z,10.20
2023-05-24T20:29:33.670Z,11.50
2023-05-24T20:32:04.824Z,11.10
2023-05-24T20:34:36.135Z,10.90
2023-05-24T20:37:07.695Z,10.40
2023-05-24T20:39:38.543Z,10.30
2023-05-24T20:42:09.760Z,8.10
2023-05-24T20:44:40.749Z,10.70
2023-05-24T20:47:12.051Z,10.10
2023-05-24T20:49:43.085Z,10.20
2023-05-24T20:52:14.493Z,11.70
2023-05-24T20:54:45.530Z,10.00
2023-05-24T20:57:17.196Z,9.50
2023-05-24T20:59:48.332Z,10.10
2023-05-24T21:02:19.602Z,9.30
2023-05-24T21:04:50.643Z,9.80
2023-05-24T21:07:21.541Z,8.90
2023-05-24T21:09:52.484Z,9.20
2023-05-24T21:12:23.925Z,9.70
2023-05-24T21:14:54.956Z,9.70
2023-05-24T21:17:25.944Z,9.90
2023-05-24T21:19:56.980Z,9.60
2023-05-24T21:22:28.228Z,10.10
2023-05-24T21:24:59.339Z,10.40
2023-05-24T21:27:30.271Z,11.00
2023-05-24T21:30:01.216Z,10.50
2023-05-24T21:32:32.040Z,11.30
2023-05-24T21:35:03.105Z,8.90
2023-05-24T21:37:33.969Z,11.60
2023-05-24T21:40:05.663Z,11.20
2023-05-24T21:42:37.244Z,10.60
2023-05-24T21:45:09.860Z,10.50
2023-05-24T21:47:40.938Z,10.20
2023-05-24T21:50:13.170Z,10.20
2023-05-24T21:52:44.223Z,9.40
2023-05-24T21:55:15.111Z,9.40
2023-05-24T21:57:46.037Z,11.80
2023-05-24T22:00:20.075Z,12.20
2023-05-24T22:02:51.307Z,11.80
2023-05-24T22:05:22.593Z,10.30
2023-05-24T22:07:53.712Z,11.20
2023-05-24T22:10:25.043Z,9.30
2023-05-24T22:12:56.094Z,11.10
2023-05-24T22:15:28.398Z,11.10
2023-05-24T22:18:02.347Z,9.20
2023-05-24T22:20:33.689Z,12.50
2023-05-24T22:23:05.419Z,10.50
2023-05-24T22:25:36.364Z,11.60
2023-05-24T22:28:09.530Z,9.10
2023-05-24T22:30:41.773Z,12.20
2023-05-24T22:33:14.530Z,8.90
2023-05-24T22:35:46.036Z,11.50
2023-05-24T22:38:17.159Z,9.90
2023-05-24T22:40:48.110Z,9.50
2023-05-24T22:43:19.465Z,10.00
2023-05-24T22:45:50.258Z,10.20
2023-05-24T22:48:22.278Z,10.30
2023-05-24T22:50:53.572Z,8.80
2023-05-24T22:53:24.507Z,11.00
2023-05-24T22:55:56.216Z,10.20
2023-05-24T22:58:27.240Z,12.00
2023-05-24T23:00:58.549Z,10.40
2023-05-24T23:03:29.586Z,10.60
2023-05-24T23:06:04.706Z,11.60
2023-05-24T23:08:36.101Z,11.00
2023-05-24T23:11:10.633Z,10.90
2023-05-24T23:13:42.437Z,10.90
2023-05-24T23:16:18.120Z,10.60
2023-05-24T23:18:49.066Z,9.40
2023-05-24T23:21:22.593Z,10.70
2023-05-24T23:23:54.079Z,10.20
2023-05-24T23:26:25.959Z,8.80
2023-05-24T23:28:57.070Z,9.10
2023-05-24T23:31:28.440Z,9.70
2023-05-24T23:34:00.317Z,9.20
2023-05-24T23:36:31.369Z,9.60
2023-05-24T23:39:02.463Z,9.90
2023-05-24T23:41:33.765Z,9.60
2023-05-24T23:44:04.681Z,10.30
2023-05-24T23:46:36.342Z,9.00
2023-05-24T23:49:07.698Z,10.30
2023-05-24T23:51:38.684Z,9.00
2023-05-24T23:54:09.986Z,10.10
2023-05-24T23:56:41.346Z,10.00
2023-05-24T23:59:12.951Z,10.50
